Freedom, CA (95019)

11:29 AM PST on December 07, 2016 (GMT -0800)
Watsonville Municipal | | Change Station

Elev 161 ft 36.94 °N, 121.79 °W | Updated 36 minutes ago

Clear
Clear
48 °F
Feels Like 48 °F
N
5
Wind Variable Wind from ENE

Today
High -- | Low -- °F
--% Chance of Precip.
Yesterday
High -- | Low -- °F
Precip. -- in
Pressure 30.19 in
Visibility 10.0 miles
Clouds Clear
Dew Point 41 °F
Humidity 77%
Rainfall 0.00 in
Snow Depth Not available.
7:07 AM 4:50 PM
First Quarter, 55% visible
METAR KWVI 071853Z AUTO 06004KT 10SM CLR 09/05 A3019 RMK AO2 SLP224 T00890050
Pressure 30.19 in
Visibility 10.0 miles
Clouds Clear
Dew Point 41 °F
Humidity 77%
Rainfall 0.00 in
Snow Depth Not available.
7:07 AM 4:50 PM
First Quarter, 55% visible
METAR KWVI 071853Z AUTO 06004KT 10SM CLR 09/05 A3019 RMK AO2 SLP224 T00890050

10-Day Weather Forecast

Almanac

Astronomy

Dec. 07, 2016 Rise Set
Actual Time
Civil Twilight
Nautical Twilight
Astronomical Twilight
Moon
Length of Visible Light
Length of Day
Tomorrow will be .
, % of the Moon is Illuminated

Today's Extremes

State Highs State Lows

Community

WunderPhotos

Upload Photos

1,956,164 photos uploaded!

WunderBlog® & News

Nearby

Air Quality

  Air Quality AQ Index Pollutant
Not available.

Snow Depth

Station Depth Elevation

Earthquake Activity

City Distance Mag. Time & Date
Minimum magnitude displayed is 2.5.

Coastal Water Temperatures

Place Temperature

Stations

Nearby Weather Stations

Station Location Temp. Windchill Dew Point Humidity Wind Precip. Elev Updated Type
                   

Watches & Warnings

There are currently no watches in effect.